createdAt,value
2023-05-14T00:00:26.392Z,77.11
2023-05-14T00:00:57.882Z,77.65
2023-05-14T00:01:29.363Z,77.73
2023-05-14T00:02:00.813Z,77.46
2023-05-14T00:02:32.305Z,77.09
2023-05-14T00:03:04.156Z,77.61
2023-05-14T00:03:36.981Z,77.52
2023-05-14T00:04:08.662Z,77.24
2023-05-14T00:04:40.989Z,77.03
2023-05-14T00:05:12.537Z,77.43
2023-05-14T00:05:43.912Z,77.64
2023-05-14T00:06:16.094Z,77.17
2023-05-14T00:06:47.441Z,77.70
2023-05-14T00:07:19.033Z,77.48
2023-05-14T00:07:50.603Z,77.91
2023-05-14T00:08:22.080Z,77.34
2023-05-14T00:08:53.550Z,77.56
2023-05-14T00:09:25.094Z,77.40
2023-05-14T00:09:57.543Z,78.08
2023-05-14T00:10:29.013Z,77.43
2023-05-14T00:11:00.496Z,77.93
2023-05-14T00:11:31.955Z,77.85
2023-05-14T00:12:03.632Z,77.97
2023-05-14T00:12:35.069Z,78.33
2023-05-14T00:13:06.453Z,78.00
2023-05-14T00:13:37.998Z,78.23
2023-05-14T00:14:09.508Z,77.79
2023-05-14T00:14:40.994Z,78.49
2023-05-14T00:15:12.598Z,78.41
2023-05-14T00:15:44.481Z,78.33
2023-05-14T00:16:16.092Z,78.52
2023-05-14T00:16:47.791Z,78.99
2023-05-14T00:17:19.435Z,78.40
2023-05-14T00:17:50.854Z,78.99
2023-05-14T00:18:22.353Z,78.70
2023-05-14T00:18:53.842Z,78.56
2023-05-14T00:19:26.530Z,78.76
2023-05-14T00:19:59.436Z,79.11
2023-05-14T00:20:30.786Z,78.84
2023-05-14T00:21:02.139Z,78.63
2023-05-14T00:21:33.578Z,79.11
2023-05-14T00:22:05.233Z,78.73
2023-05-14T00:22:37.174Z,78.71
2023-05-14T00:23:08.865Z,79.39
2023-05-14T00:23:40.430Z,79.40
2023-05-14T00:24:11.981Z,79.48
2023-05-14T00:24:43.395Z,79.70
2023-05-14T00:25:14.881Z,80.03
2023-05-14T00:25:46.248Z,80.11
2023-05-14T00:26:17.640Z,79.74
2023-05-14T00:26:49.539Z,80.01
2023-05-14T00:27:21.146Z,79.92
2023-05-14T00:27:52.543Z,79.88
2023-05-14T00:28:23.954Z,80.11
2023-05-14T00:28:55.757Z,80.52
2023-05-14T00:29:27.181Z,80.43
2023-05-14T00:29:58.603Z,79.89
2023-05-14T00:30:30.039Z,80.21
2023-05-14T00:31:01.412Z,80.28
2023-05-14T00:31:33.144Z,80.47
2023-05-14T00:32:05.032Z,79.49
2023-05-14T00:32:36.483Z,80.06
2023-05-14T00:33:08.144Z,79.72
2023-05-14T00:33:39.830Z,79.86
2023-05-14T00:34:11.193Z,80.11
2023-05-14T00:34:42.810Z,79.67
2023-05-14T00:35:14.269Z,79.92
2023-05-14T00:35:45.736Z,79.87
2023-05-14T00:36:17.269Z,80.21
2023-05-14T00:36:51.563Z,80.30
2023-05-14T00:37:22.985Z,80.14
2023-05-14T00:37:55.148Z,80.32
2023-05-14T00:38:28.651Z,80.18
2023-05-14T00:39:00.075Z,80.44
2023-05-14T00:39:31.492Z,80.69
2023-05-14T00:40:03.676Z,80.45
2023-05-14T00:40:35.222Z,80.06
2023-05-14T00:41:06.649Z,80.19
2023-05-14T00:41:38.323Z,79.81
2023-05-14T00:42:09.750Z,80.18
2023-05-14T00:42:41.198Z,79.95
2023-05-14T00:43:12.647Z,79.81
2023-05-14T00:43:44.097Z,80.39
2023-05-14T00:44:15.521Z,79.97
2023-05-14T00:44:46.958Z,79.74
2023-05-14T00:45:18.626Z,80.19
2023-05-14T00:45:51.692Z,79.77
2023-05-14T00:46:23.106Z,80.20
2023-05-14T00:46:54.860Z,80.47
2023-05-14T00:47:26.973Z,79.86
2023-05-14T00:47:58.550Z,80.06
2023-05-14T00:48:30.399Z,80.35
2023-05-14T00:49:01.893Z,79.97
2023-05-14T00:49:34.171Z,80.28
2023-05-14T00:50:06.570Z,80.24
2023-05-14T00:50:38.454Z,80.72
2023-05-14T00:51:10.345Z,80.59
2023-05-14T00:51:42.222Z,80.51
2023-05-14T00:52:15.343Z,80.67
2023-05-14T00:52:47.700Z,80.64
2023-05-14T00:53:19.563Z,81.28
2023-05-14T00:53:52.208Z,80.75
2023-05-14T00:54:23.656Z,80.66
2023-05-14T00:54:55.760Z,80.99
2023-05-14T00:55:29.995Z,80.84
2023-05-14T00:56:02.432Z,80.73
2023-05-14T00:56:35.231Z,80.55
2023-05-14T00:57:06.847Z,80.61
2023-05-14T00:57:38.861Z,80.70
2023-05-14T00:58:12.148Z,80.81
2023-05-14T00:58:43.806Z,80.93
2023-05-14T00:59:15.259Z,81.24
2023-05-14T00:59:46.768Z,80.99
2023-05-14T01:00:18.453Z,80.73
2023-05-14T01:00:50.071Z,80.80
2023-05-14T01:01:21.980Z,80.93
2023-05-14T01:01:53.965Z,80.99
2023-05-14T01:02:25.583Z,80.68
2023-05-14T01:02:57.404Z,80.89
2023-05-14T01:03:33.675Z,80.50
2023-05-14T01:04:07.196Z,80.24
2023-05-14T01:04:39.615Z,80.82
2023-05-14T01:05:11.109Z,80.66
2023-05-14T01:06:04.225Z,81.24
2023-05-14T01:07:06.913Z,80.13
2023-05-14T01:07:54.313Z,81.08
2023-05-14T01:08:36.369Z,80.60
2023-05-14T01:09:23.416Z,80.68
2023-05-14T01:10:03.006Z,81.01
2023-05-14T01:11:04.843Z,80.63
2023-05-14T01:11:43.682Z,81.32
2023-05-14T01:12:34.583Z,81.37
2023-05-14T01:13:18.370Z,81.33
2023-05-14T01:13:55.817Z,81.88
2023-05-14T01:14:36.872Z,81.65
2023-05-14T01:15:16.615Z,81.60
2023-05-14T01:15:49.197Z,81.39
2023-05-14T01:16:22.253Z,81.74
2023-05-14T01:16:58.893Z,81.60
2023-05-14T01:17:36.721Z,81.87
2023-05-14T01:18:11.107Z,82.02
2023-05-14T01:18:43.989Z,82.00
2023-05-14T01:19:37.459Z,81.73
2023-05-14T01:20:10.498Z,82.16
2023-05-14T01:20:42.259Z,82.15
2023-05-14T01:21:40.765Z,81.63
2023-05-14T01:22:12.509Z,81.83
2023-05-14T01:22:44.022Z,81.95
2023-05-14T01:23:15.512Z,82.26
2023-05-14T01:23:47.125Z,82.47
2023-05-14T01:24:18.528Z,82.32
2023-05-14T01:24:49.938Z,82.06
2023-05-14T01:25:21.470Z,81.75
2023-05-14T01:25:52.907Z,82.12
2023-05-14T01:26:24.302Z,81.76
2023-05-14T01:27:04.102Z,81.98
2023-05-14T01:27:54.095Z,81.88
2023-05-14T01:28:32.813Z,81.84
2023-05-14T01:29:10.715Z,81.69
2023-05-14T01:29:45.455Z,82.31
2023-05-14T01:30:28.397Z,82.01
2023-05-14T01:31:18.733Z,81.96
2023-05-14T01:31:51.476Z,82.04
2023-05-14T01:32:24.510Z,81.92
2023-05-14T01:33:00.370Z,81.52
2023-05-14T01:33:33.956Z,82.07
2023-05-14T01:34:07.465Z,82.05
2023-05-14T01:34:39.772Z,82.10
2023-05-14T01:35:11.625Z,82.01
2023-05-14T01:35:43.475Z,82.55
2023-05-14T01:36:15.329Z,82.43
2023-05-14T01:36:48.145Z,82.26
2023-05-14T01:37:19.971Z,82.69
2023-05-14T01:37:55.221Z,82.49
2023-05-14T01:38:30.302Z,82.27
2023-05-14T01:39:03.780Z,82.00
2023-05-14T01:39:37.819Z,82.03
2023-05-14T01:40:10.873Z,82.63
2023-05-14T01:40:43.765Z,82.78
2023-05-14T01:41:18.089Z,82.74
2023-05-14T01:41:51.089Z,82.39
2023-05-14T01:42:23.250Z,82.45
2023-05-14T01:42:55.344Z,82.49
2023-05-14T01:43:27.306Z,82.72
2023-05-14T01:43:59.149Z,82.01
2023-05-14T01:44:30.900Z,83.01
2023-05-14T01:45:02.805Z,83.16
2023-05-14T01:45:36.410Z,82.63
2023-05-14T01:46:07.940Z,82.80
2023-05-14T01:46:39.517Z,83.39
2023-05-14T01:47:10.874Z,83.45
2023-05-14T01:47:42.267Z,83.13
2023-05-14T01:48:13.784Z,82.88
2023-05-14T01:48:45.415Z,83.10
2023-05-14T01:49:18.146Z,82.82
2023-05-14T01:49:49.776Z,82.83
2023-05-14T01:50:21.815Z,82.89
2023-05-14T01:50:53.419Z,82.83
2023-05-14T01:51:25.292Z,82.55
2023-05-14T01:51:56.766Z,82.75
2023-05-14T01:52:28.191Z,83.00
2023-05-14T01:52:59.695Z,82.85
2023-05-14T01:53:31.119Z,82.75
2023-05-14T01:54:02.514Z,83.22
2023-05-14T01:54:34.278Z,83.35
2023-05-14T01:55:06.288Z,83.44
2023-05-14T01:55:37.990Z,83.10
2023-05-14T01:56:09.411Z,83.72
2023-05-14T01:56:41.003Z,83.49
2023-05-14T01:57:12.557Z,83.42
2023-05-14T01:57:43.993Z,83.94
2023-05-14T01:58:15.365Z,83.71
2023-05-14T01:58:46.809Z,83.35
2023-05-14T01:59:18.260Z,83.94
2023-05-14T01:59:49.603Z,83.63
2023-05-14T02:00:24.303Z,83.44
2023-05-14T02:00:55.981Z,83.11
2023-05-14T02:01:27.779Z,83.30
2023-05-14T02:01:59.280Z,83.24
2023-05-14T02:02:31.020Z,83.53
2023-05-14T02:03:02.488Z,83.57
2023-05-14T02:03:34.024Z,83.67
2023-05-14T02:04:05.552Z,83.10
2023-05-14T02:04:36.962Z,82.96
2023-05-14T02:05:09.447Z,83.30
2023-05-14T02:05:40.871Z,83.46
2023-05-14T02:06:12.292Z,83.54
2023-05-14T02:06:43.711Z,83.62
2023-05-14T02:07:16.072Z,83.30
2023-05-14T02:07:47.474Z,83.05
2023-05-14T02:08:18.835Z,83.17
2023-05-14T02:08:50.238Z,83.11
2023-05-14T02:09:21.791Z,83.14
2023-05-14T02:09:53.227Z,83.02
2023-05-14T02:10:24.849Z,83.36
2023-05-14T02:10:56.479Z,83.49
2023-05-14T02:11:28.055Z,83.58
2023-05-14T02:11:59.529Z,83.07
2023-05-14T02:12:30.934Z,83.74
2023-05-14T02:13:03.770Z,83.47
2023-05-14T02:13:36.130Z,83.45
2023-05-14T02:14:07.685Z,83.46
2023-05-14T02:14:39.157Z,83.44
2023-05-14T02:15:11.165Z,83.41
2023-05-14T02:15:42.799Z,83.16
2023-05-14T02:16:14.169Z,83.31
2023-05-14T02:16:45.569Z,83.40
2023-05-14T02:17:17.847Z,83.29
2023-05-14T02:17:49.240Z,83.45
2023-05-14T02:18:20.725Z,83.27
2023-05-14T02:18:52.252Z,83.15
2023-05-14T02:19:24.267Z,83.61
2023-05-14T02:19:55.724Z,83.20
2023-05-14T02:20:27.433Z,83.51
2023-05-14T02:20:58.928Z,83.39
2023-05-14T02:21:30.723Z,83.46
2023-05-14T02:22:02.132Z,83.19
2023-05-14T02:22:33.530Z,83.76
2023-05-14T02:23:04.973Z,83.60
2023-05-14T02:23:41.667Z,83.72
2023-05-14T02:24:13.672Z,83.71
2023-05-14T02:24:45.143Z,83.93
2023-05-14T02:25:16.592Z,83.95
2023-05-14T02:25:48.164Z,84.38
2023-05-14T02:26:20.104Z,83.95
2023-05-14T02:26:51.481Z,84.00
2023-05-14T02:27:22.855Z,84.20
2023-05-14T02:27:54.241Z,83.94
2023-05-14T02:28:25.908Z,83.55
2023-05-14T02:28:57.382Z,83.86
2023-05-14T02:29:29.247Z,84.16
2023-05-14T02:30:00.829Z,84.02
2023-05-14T02:30:32.358Z,84.23
2023-05-14T02:31:03.762Z,84.41
2023-05-14T02:31:35.293Z,84.75
2023-05-14T02:32:07.202Z,84.50
2023-05-14T02:32:38.751Z,84.44
2023-05-14T02:33:10.379Z,84.38
2023-05-14T02:33:41.911Z,84.38
2023-05-14T02:34:13.345Z,84.94
2023-05-14T02:34:44.707Z,84.42
2023-05-14T02:35:16.429Z,84.39
2023-05-14T02:35:47.786Z,84.47
2023-05-14T02:36:19.194Z,84.54
2023-05-14T02:36:50.612Z,84.62
2023-05-14T02:37:22.364Z,84.51
2023-05-14T02:37:54.469Z,84.43
2023-05-14T02:38:27.002Z,84.43
2023-05-14T02:38:59.620Z,84.38
2023-05-14T02:39:31.015Z,84.52
2023-05-14T02:40:02.490Z,84.86
2023-05-14T02:40:33.964Z,84.85
2023-05-14T02:41:05.394Z,85.43
2023-05-14T02:41:36.776Z,85.20
2023-05-14T02:42:08.259Z,85.12
2023-05-14T02:42:39.727Z,85.12
2023-05-14T02:43:11.105Z,85.53
2023-05-14T02:43:42.800Z,85.12
2023-05-14T02:44:14.165Z,85.10
2023-05-14T02:44:45.820Z,84.92
2023-05-14T02:45:17.266Z,85.16
2023-05-14T02:45:48.767Z,84.39
2023-05-14T02:46:20.637Z,84.84
2023-05-14T02:46:52.137Z,85.23
2023-05-14T02:47:23.563Z,85.33
2023-05-14T02:47:55.277Z,85.38
2023-05-14T02:48:26.821Z,85.37
2023-05-14T02:48:58.533Z,85.72
2023-05-14T02:49:29.909Z,85.24
2023-05-14T02:50:01.293Z,84.94
2023-05-14T02:50:32.716Z,84.85
2023-05-14T02:51:04.186Z,85.32
2023-05-14T02:51:35.684Z,85.13
2023-05-14T02:52:07.218Z,85.21
2023-05-14T02:52:38.945Z,85.33
2023-05-14T02:53:10.342Z,84.79
2023-05-14T02:53:41.731Z,84.96
2023-05-14T02:54:13.154Z,84.82
2023-05-14T02:54:44.524Z,85.27
2023-05-14T02:55:16.185Z,85.29
2023-05-14T02:55:47.627Z,85.54
2023-05-14T02:56:19.073Z,85.92
2023-05-14T02:56:50.617Z,85.84
2023-05-14T02:57:22.084Z,85.91
2023-05-14T02:57:53.455Z,85.62
2023-05-14T02:58:27.454Z,85.38
2023-05-14T02:59:00.110Z,85.57
2023-05-14T02:59:31.947Z,85.63
2023-05-14T03:00:04.615Z,85.86
2023-05-14T03:00:36.804Z,85.74
2023-05-14T03:01:08.830Z,85.74
2023-05-14T03:01:40.968Z,85.88
2023-05-14T03:02:12.635Z,85.93
2023-05-14T03:02:44.769Z,86.13
2023-05-14T03:03:16.983Z,86.28
2023-05-14T03:03:49.355Z,85.98
2023-05-14T03:04:21.253Z,86.34
2023-05-14T03:04:52.663Z,86.45
2023-05-14T03:05:24.178Z,86.50
2023-05-14T03:05:58.465Z,86.21
2023-05-14T03:06:29.841Z,86.36
2023-05-14T03:07:01.226Z,86.44
2023-05-14T03:07:32.662Z,86.17
2023-05-14T03:08:04.691Z,86.18
2023-05-14T03:08:36.409Z,86.54
2023-05-14T03:09:08.011Z,86.58
2023-05-14T03:09:39.376Z,86.43
2023-05-14T03:10:10.838Z,86.54
2023-05-14T03:10:42.481Z,86.26
2023-05-14T03:11:13.958Z,86.15
2023-05-14T03:11:45.850Z,86.25
2023-05-14T03:12:18.075Z,86.50
2023-05-14T03:12:49.539Z,86.69
2023-05-14T03:13:21.073Z,86.65
2023-05-14T03:13:52.457Z,86.81
2023-05-14T03:14:23.873Z,86.91
2023-05-14T03:14:55.461Z,86.82
2023-05-14T03:15:26.914Z,86.84
2023-05-14T03:15:58.255Z,86.66
2023-05-14T03:16:29.696Z,86.81
2023-05-14T03:17:01.300Z,86.82
2023-05-14T03:17:33.000Z,86.80
2023-05-14T03:18:04.512Z,86.37
2023-05-14T03:18:36.679Z,86.47
2023-05-14T03:19:09.789Z,86.42
2023-05-14T03:19:41.333Z,86.57
2023-05-14T03:20:13.114Z,86.98
2023-05-14T03:20:44.531Z,86.23
2023-05-14T03:21:16.071Z,86.31
2023-05-14T03:21:47.513Z,86.44
2023-05-14T03:22:19.080Z,86.42
2023-05-14T03:22:50.498Z,86.17
2023-05-14T03:23:21.976Z,86.24
2023-05-14T03:23:53.681Z,86.26
2023-05-14T03:24:25.427Z,86.48
2023-05-14T03:24:57.125Z,86.50
2023-05-14T03:25:28.606Z,86.40
2023-05-14T03:26:00.141Z,86.39
2023-05-14T03:26:31.603Z,86.66
2023-05-14T03:27:03.458Z,86.87
2023-05-14T03:27:35.022Z,86.63
2023-05-14T03:28:06.954Z,86.66
2023-05-14T03:28:38.430Z,86.67
2023-05-14T03:29:10.709Z,86.59
2023-05-14T03:29:43.045Z,86.78
2023-05-14T03:30:14.562Z,86.57
2023-05-14T03:30:46.246Z,86.64
2023-05-14T03:31:17.811Z,86.58
2023-05-14T03:31:50.561Z,86.52
2023-05-14T03:32:22.144Z,86.59
2023-05-14T03:32:53.777Z,86.59
2023-05-14T03:33:25.176Z,86.43
2023-05-14T03:33:56.597Z,86.84
2023-05-14T03:34:28.089Z,86.89
2023-05-14T03:34:59.630Z,86.87
2023-05-14T03:35:31.479Z,87.32
2023-05-14T03:36:03.004Z,87.31
2023-05-14T03:36:36.267Z,87.52
2023-05-14T03:37:07.713Z,87.51
2023-05-14T03:37:39.103Z,87.67
2023-05-14T03:38:10.426Z,88.15
2023-05-14T03:38:41.868Z,88.26
2023-05-14T03:39:15.539Z,87.64
2023-05-14T03:39:46.923Z,87.90
2023-05-14T03:40:18.408Z,88.19
2023-05-14T03:40:49.791Z,88.46
2023-05-14T03:41:21.922Z,88.79
2023-05-14T03:41:53.601Z,88.53
2023-05-14T03:42:24.967Z,88.75
2023-05-14T03:42:56.416Z,88.58
2023-05-14T03:43:27.789Z,88.59
2023-05-14T03:43:59.272Z,88.54
2023-05-14T03:44:30.704Z,88.61
2023-05-14T03:45:02.409Z,88.77
2023-05-14T03:45:33.905Z,88.35
2023-05-14T03:46:05.359Z,88.47
2023-05-14T03:46:36.701Z,88.71
2023-05-14T03:47:08.072Z,88.54
2023-05-14T03:47:39.497Z,88.67
2023-05-14T03:48:11.056Z,88.74
2023-05-14T03:48:42.800Z,88.80
2023-05-14T03:49:14.251Z,88.77
2023-05-14T03:49:45.693Z,89.03
2023-05-14T03:50:17.120Z,88.93
2023-05-14T03:50:48.586Z,88.54
2023-05-14T03:51:19.957Z,88.96
2023-05-14T03:51:51.450Z,88.65
2023-05-14T03:52:22.857Z,89.21
2023-05-14T03:52:54.925Z,88.78
2023-05-14T03:53:26.688Z,88.56
2023-05-14T03:53:58.309Z,88.87
2023-05-14T03:54:29.808Z,89.07
2023-05-14T03:55:01.246Z,88.80
2023-05-14T03:55:32.711Z,88.79
2023-05-14T03:56:04.394Z,88.60
2023-05-14T03:56:35.725Z,88.52
2023-05-14T03:57:07.217Z,88.60
2023-05-14T03:57:38.657Z,88.60
2023-05-14T03:58:13.878Z,88.45
2023-05-14T03:58:45.286Z,88.76
2023-05-14T03:59:16.871Z,88.67
2023-05-14T03:59:48.293Z,88.39
2023-05-14T04:00:19.952Z,88.56
2023-05-14T04:00:51.860Z,88.42
2023-05-14T04:01:25.645Z,88.53
2023-05-14T04:01:57.044Z,88.80
2023-05-14T04:02:28.534Z,88.99
2023-05-14T04:03:00.105Z,89.06
2023-05-14T04:03:31.908Z,88.91
2023-05-14T04:04:03.899Z,88.81
2023-05-14T04:04:35.739Z,88.89
2023-05-14T04:05:07.504Z,88.97
2023-05-14T04:05:38.897Z,89.23
2023-05-14T04:06:10.475Z,89.00
2023-05-14T04:06:41.945Z,89.25
2023-05-14T04:07:13.389Z,89.02
2023-05-14T04:07:46.131Z,89.89
2023-05-14T04:08:17.734Z,89.28
2023-05-14T04:08:49.105Z,89.12
2023-05-14T04:09:20.460Z,89.27
2023-05-14T04:09:52.129Z,90.08
2023-05-14T04:10:23.833Z,89.54
2023-05-14T04:10:55.434Z,89.39
2023-05-14T04:11:26.839Z,89.42
2023-05-14T04:11:58.267Z,88.89
2023-05-14T04:12:29.682Z,89.27
2023-05-14T04:13:01.370Z,88.94
2023-05-14T04:13:32.725Z,89.11
2023-05-14T04:14:04.156Z,89.33
2023-05-14T04:14:35.898Z,89.42
2023-05-14T04:15:08.036Z,89.12
2023-05-14T04:15:39.933Z,89.47
2023-05-14T04:16:11.479Z,89.22
2023-05-14T04:16:43.083Z,88.92
2023-05-14T04:17:14.687Z,88.70
2023-05-14T04:17:46.090Z,89.05
2023-05-14T04:18:17.538Z,88.91
2023-05-14T04:18:49.154Z,89.09
2023-05-14T04:19:20.735Z,88.96
2023-05-14T04:19:52.438Z,89.44
2023-05-14T04:20:23.929Z,89.08
2023-05-14T04:20:55.674Z,89.35
2023-05-14T04:21:27.061Z,89.58
2023-05-14T04:21:58.473Z,89.40
2023-05-14T04:22:29.938Z,89.42
2023-05-14T04:23:01.335Z,89.57
2023-05-14T04:23:32.966Z,89.96
2023-05-14T04:24:04.679Z,89.87
2023-05-14T04:24:36.047Z,89.86
2023-05-14T04:25:07.778Z,90.20
2023-05-14T04:25:39.200Z,90.32
2023-05-14T04:26:10.607Z,89.78
2023-05-14T04:26:41.988Z,89.74
2023-05-14T04:27:20.072Z,89.79
2023-05-14T04:27:51.498Z,89.69
2023-05-14T04:28:23.048Z,89.44
2023-05-14T04:28:54.478Z,89.20
2023-05-14T04:29:25.898Z,89.51
2023-05-14T04:29:57.409Z,89.33
2023-05-14T04:30:28.852Z,89.88
2023-05-14T04:31:00.276Z,89.96
2023-05-14T04:31:32.221Z,89.56
2023-05-14T04:32:04.181Z,89.75
2023-05-14T04:32:35.760Z,89.38
2023-05-14T04:33:07.183Z,89.80
2023-05-14T04:33:38.568Z,89.73
2023-05-14T04:34:10.020Z,89.90
2023-05-14T04:34:41.488Z,90.21
2023-05-14T04:35:13.044Z,90.01
2023-05-14T04:35:45.375Z,90.12
2023-05-14T04:36:17.686Z,90.42
2023-05-14T04:36:49.161Z,90.47
2023-05-14T04:37:20.933Z,90.31
2023-05-14T04:37:52.503Z,90.21
2023-05-14T04:38:23.995Z,90.48
2023-05-14T04:38:55.985Z,90.59
2023-05-14T04:39:27.763Z,90.42
2023-05-14T04:39:59.105Z,90.36
2023-05-14T04:40:31.370Z,90.29
2023-05-14T04:41:02.779Z,90.28
2023-05-14T04:41:34.162Z,90.65
2023-05-14T04:42:06.831Z,90.45
2023-05-14T04:42:39.292Z,90.30
2023-05-14T04:43:13.834Z,90.84
2023-05-14T04:43:47.093Z,90.41
2023-05-14T04:44:18.451Z,90.50
2023-05-14T04:44:49.827Z,90.26
2023-05-14T04:45:21.265Z,90.59
2023-05-14T04:45:52.833Z,90.33
2023-05-14T04:46:24.379Z,90.35
2023-05-14T04:46:56.129Z,90.80
2023-05-14T04:47:27.619Z,90.45
2023-05-14T04:47:59.253Z,90.44
2023-05-14T04:48:30.677Z,90.29
2023-05-14T04:49:02.085Z,90.30
2023-05-14T04:49:33.472Z,90.25
2023-05-14T04:50:06.689Z,89.98
2023-05-14T04:50:38.101Z,89.96
2023-05-14T04:51:09.738Z,90.00
2023-05-14T04:51:41.218Z,89.71
2023-05-14T04:52:12.612Z,90.01
2023-05-14T04:52:44.003Z,89.74
2023-05-14T04:53:15.370Z,89.90
2023-05-14T04:53:46.714Z,90.40
2023-05-14T04:54:18.145Z,90.35
2023-05-14T04:54:50.216Z,90.28
2023-05-14T04:55:22.398Z,90.13
2023-05-14T04:55:54.344Z,90.00
2023-05-14T04:56:26.091Z,90.41
2023-05-14T04:56:57.624Z,90.39
2023-05-14T04:57:29.054Z,89.96
2023-05-14T04:58:00.513Z,90.34
2023-05-14T04:58:34.515Z,90.38
2023-05-14T04:59:06.382Z,90.40
2023-05-14T04:59:37.815Z,90.62
2023-05-14T05:00:10.154Z,90.25
2023-05-14T05:00:41.816Z,90.52
2023-05-14T05:01:13.636Z,90.58
2023-05-14T05:01:45.921Z,90.69
2023-05-14T05:02:17.550Z,90.59
2023-05-14T05:02:48.923Z,90.44
2023-05-14T05:03:20.468Z,90.27
2023-05-14T05:03:52.289Z,90.09
2023-05-14T05:04:24.475Z,89.77
2023-05-14T05:04:55.861Z,90.11
2023-05-14T05:05:27.332Z,89.92
2023-05-14T05:05:58.959Z,89.86
2023-05-14T05:06:30.340Z,89.84
2023-05-14T05:07:01.712Z,89.88
2023-05-14T05:07:33.082Z,89.71
2023-05-14T05:08:04.560Z,90.05
2023-05-14T05:08:36.681Z,89.49
2023-05-14T05:09:09.416Z,89.76
2023-05-14T05:09:40.822Z,89.91
2023-05-14T05:10:12.554Z,89.91
2023-05-14T05:10:43.930Z,90.17
2023-05-14T05:11:15.297Z,89.82
2023-05-14T05:11:46.697Z,90.14
2023-05-14T05:12:18.074Z,90.00
2023-05-14T05:12:49.450Z,90.25
2023-05-14T05:13:20.950Z,90.27
2023-05-14T05:13:52.293Z,90.36
2023-05-14T05:14:23.735Z,89.93
2023-05-14T05:14:55.137Z,90.05
2023-05-14T05:15:26.933Z,90.34
2023-05-14T05:15:58.878Z,90.46
2023-05-14T05:16:30.524Z,90.28
2023-05-14T05:17:02.126Z,90.09
2023-05-14T05:17:33.787Z,90.40
2023-05-14T05:18:05.239Z,90.00
2023-05-14T05:18:36.741Z,89.85
2023-05-14T05:19:08.333Z,90.10
2023-05-14T05:19:43.794Z,90.59
2023-05-14T05:20:15.911Z,90.22
2023-05-14T05:20:47.396Z,89.95
2023-05-14T05:21:18.776Z,90.48
2023-05-14T05:21:51.167Z,90.44
2023-05-14T05:22:23.310Z,90.70
2023-05-14T05:22:54.875Z,90.49
2023-05-14T05:23:26.315Z,90.76
2023-05-14T05:23:57.708Z,90.76
2023-05-14T05:24:29.156Z,90.99
2023-05-14T05:25:00.699Z,90.89
2023-05-14T05:25:32.456Z,90.76
2023-05-14T05:26:03.928Z,90.51
2023-05-14T05:26:38.328Z,90.75
2023-05-14T05:27:09.719Z,90.88
2023-05-14T05:27:41.056Z,90.91
2023-05-14T05:28:12.429Z,90.89
2023-05-14T05:28:44.002Z,90.77
2023-05-14T05:29:15.881Z,90.52
2023-05-14T05:29:47.315Z,90.87
2023-05-14T05:30:19.277Z,90.87
2023-05-14T05:30:50.964Z,90.65
2023-05-14T05:31:22.891Z,90.74
2023-05-14T05:31:54.395Z,90.63
2023-05-14T05:32:25.866Z,90.54
2023-05-14T05:32:57.674Z,90.56
2023-05-14T05:33:29.354Z,91.02
2023-05-14T05:34:01.255Z,91.01
2023-05-14T05:34:32.759Z,90.65
2023-05-14T05:35:04.481Z,90.70
2023-05-14T05:35:35.960Z,90.70
2023-05-14T05:36:07.634Z,90.46
2023-05-14T05:36:39.061Z,90.48
2023-05-14T05:37:12.780Z,90.36
2023-05-14T05:37:45.269Z,90.54
2023-05-14T05:38:18.248Z,90.88
2023-05-14T05:38:49.724Z,91.19
2023-05-14T05:39:21.254Z,91.28
2023-05-14T05:39:53.867Z,90.88
2023-05-14T05:40:25.764Z,91.20
2023-05-14T05:40:57.325Z,90.98
2023-05-14T05:41:29.994Z,90.72
2023-05-14T05:42:04.873Z,90.69
2023-05-14T05:42:36.370Z,91.03
2023-05-14T05:43:07.746Z,90.73
2023-05-14T05:43:39.299Z,90.87
2023-05-14T05:44:10.744Z,90.87
2023-05-14T05:44:42.153Z,91.25
2023-05-14T05:45:13.555Z,90.90
2023-05-14T05:45:46.014Z,91.25
2023-05-14T05:46:17.541Z,91.33
2023-05-14T05:46:48.986Z,91.21
2023-05-14T05:47:20.517Z,90.92
2023-05-14T05:47:51.963Z,90.95
2023-05-14T05:48:23.399Z,91.09
2023-05-14T05:48:54.820Z,91.08
2023-05-14T05:49:26.210Z,90.90
2023-05-14T05:49:57.824Z,91.51
2023-05-14T05:50:30.171Z,91.11
2023-05-14T05:51:01.638Z,91.53
2023-05-14T05:51:33.219Z,91.38
2023-05-14T05:52:05.168Z,91.15
2023-05-14T05:52:36.777Z,91.39
2023-05-14T05:53:08.199Z,91.66
2023-05-14T05:53:39.769Z,91.11
2023-05-14T05:54:11.310Z,90.71
2023-05-14T05:54:42.697Z,91.20
2023-05-14T05:55:14.069Z,90.90
2023-05-14T05:55:45.541Z,90.67
2023-05-14T05:56:16.967Z,90.48
2023-05-14T05:56:48.382Z,90.71
2023-05-14T05:57:19.764Z,91.03
2023-05-14T05:57:51.296Z,90.86
2023-05-14T05:58:22.646Z,90.88
2023-05-14T05:58:54.081Z,90.96
2023-05-14T05:59:25.580Z,90.97
2023-05-14T05:59:56.938Z,91.16
2023-05-14T06:00:28.416Z,90.93
2023-05-14T06:01:00.199Z,90.86
2023-05-14T06:01:32.166Z,90.84
2023-05-14T06:02:03.733Z,91.28
2023-05-14T06:02:35.210Z,91.16
2023-05-14T06:03:07.180Z,91.12
2023-05-14T06:03:38.562Z,91.16
2023-05-14T06:04:10.173Z,90.93
2023-05-14T06:04:41.663Z,90.71
2023-05-14T06:05:13.216Z,90.62
2023-05-14T06:05:45.031Z,90.82
2023-05-14T06:06:16.616Z,91.38
2023-05-14T06:06:48.080Z,91.36
2023-05-14T06:07:19.485Z,91.30
2023-05-14T06:07:50.906Z,91.35
2023-05-14T06:08:22.521Z,91.74
2023-05-14T06:08:54.009Z,91.61
2023-05-14T06:09:25.460Z,91.98
2023-05-14T06:09:56.801Z,92.32
2023-05-14T06:10:28.350Z,92.61
2023-05-14T06:10:59.722Z,91.89
2023-05-14T06:11:31.048Z,91.58
2023-05-14T06:12:02.407Z,92.07
2023-05-14T06:12:33.803Z,92.34
2023-05-14T06:13:05.301Z,91.42
2023-05-14T06:13:36.660Z,91.50
2023-05-14T06:14:08.075Z,91.79
2023-05-14T06:14:39.473Z,91.09
2023-05-14T06:15:12.076Z,91.07
2023-05-14T06:15:43.827Z,91.07
2023-05-14T06:16:15.238Z,91.64
2023-05-14T06:16:46.712Z,91.09
2023-05-14T06:17:18.266Z,91.39
2023-05-14T06:17:49.703Z,90.88
2023-05-14T06:18:21.241Z,91.34
2023-05-14T06:18:53.140Z,90.90
2023-05-14T06:19:24.599Z,91.23
2023-05-14T06:19:55.936Z,91.03
2023-05-14T06:20:27.368Z,90.79
2023-05-14T06:21:00.373Z,91.25
2023-05-14T06:21:32.021Z,90.89
2023-05-14T06:22:03.522Z,90.66
2023-05-14T06:22:35.022Z,91.59
2023-05-14T06:23:07.698Z,91.38
2023-05-14T06:23:39.115Z,91.04
2023-05-14T06:24:10.872Z,91.13
2023-05-14T06:24:42.280Z,90.28
2023-05-14T06:25:13.654Z,90.34
2023-05-14T06:25:45.026Z,90.73
2023-05-14T06:26:16.517Z,90.33
2023-05-14T06:26:49.369Z,90.50
2023-05-14T06:27:20.779Z,90.46
2023-05-14T06:27:52.206Z,90.80
2023-05-14T06:28:23.711Z,90.16
2023-05-14T06:28:55.271Z,90.20
2023-05-14T06:29:26.729Z,90.38
2023-05-14T06:29:58.093Z,90.37
2023-05-14T06:30:29.707Z,90.31
2023-05-14T06:31:01.177Z,89.75
2023-05-14T06:31:32.763Z,89.81
2023-05-14T06:32:05.102Z,89.88
2023-05-14T06:32:37.065Z,90.02
2023-05-14T06:33:08.481Z,90.39
2023-05-14T06:33:40.047Z,89.98
2023-05-14T06:34:11.499Z,90.24
2023-05-14T06:34:43.407Z,89.99
2023-05-14T06:35:14.827Z,90.19
2023-05-14T06:35:46.302Z,89.29
2023-05-14T06:36:17.673Z,89.72
2023-05-14T06:36:49.093Z,89.46
2023-05-14T06:37:20.591Z,88.78
2023-05-14T06:37:52.047Z,88.75
2023-05-14T06:38:23.450Z,88.08
2023-05-14T06:38:54.837Z,87.57
2023-05-14T06:39:26.186Z,87.98
2023-05-14T06:39:58.118Z,88.17
2023-05-14T06:40:29.578Z,88.71
2023-05-14T06:41:01.160Z,88.21
2023-05-14T06:41:33.012Z,88.38
2023-05-14T06:42:05.100Z,88.70
2023-05-14T06:42:36.716Z,88.22
2023-05-14T06:43:08.084Z,88.16
2023-05-14T06:43:39.446Z,88.48
2023-05-14T06:44:10.984Z,88.06
2023-05-14T06:44:42.840Z,88.51
2023-05-14T06:45:14.264Z,88.83
2023-05-14T06:45:48.847Z,88.29
2023-05-14T06:46:20.202Z,88.31
2023-05-14T06:46:52.048Z,88.46
2023-05-14T06:47:23.544Z,88.18
2023-05-14T06:47:55.595Z,88.49
2023-05-14T06:48:29.395Z,88.54
2023-05-14T06:49:01.156Z,88.39
2023-05-14T06:49:33.260Z,88.20
2023-05-14T06:50:05.071Z,87.91
2023-05-14T06:50:36.506Z,87.92
2023-05-14T06:51:08.006Z,87.90
2023-05-14T06:51:40.726Z,87.63
2023-05-14T06:52:12.186Z,87.62
2023-05-14T06:52:44.873Z,87.03
2023-05-14T06:53:16.333Z,87.20
2023-05-14T06:53:48.764Z,87.76
2023-05-14T06:54:20.584Z,87.89
2023-05-14T06:54:51.960Z,87.07